sensor_id;sensor_type;location;lat;lon;timestamp;pressure;altitude;pressure_sealevel;temperature;humidity
14966;BME280;7577;45.226;5.798;2023-08-21T00:01:11;99421.03;;;33.46;36.25
14966;BME280;7577;45.226;5.798;2023-08-21T00:03:41;99416.80;;;33.46;36.25
14966;BME280;7577;45.226;5.798;2023-08-21T00:06:11;99423.03;;;33.45;36.22
14966;BME280;7577;45.226;5.798;2023-08-21T00:08:41;99425.86;;;33.45;36.23
14966;BME280;7577;45.226;5.798;2023-08-21T00:11:12;99426.48;;;33.45;36.24
14966;BME280;7577;45.226;5.798;2023-08-21T00:13:42;99423.47;;;33.44;36.25
14966;BME280;7577;45.226;5.798;2023-08-21T00:18:51;99425.08;;;33.45;36.29
14966;BME280;7577;45.226;5.798;2023-08-21T00:21:22;99431.95;;;33.44;36.31
14966;BME280;7577;45.226;5.798;2023-08-21T00:23:51;99421.43;;;33.44;36.26
14966;BME280;7577;45.226;5.798;2023-08-21T00:26:21;99419.23;;;33.44;36.29
14966;BME280;7577;45.226;5.798;2023-08-21T00:28:52;99422.45;;;33.43;36.31
14966;BME280;7577;45.226;5.798;2023-08-21T00:31:22;99421.64;;;33.42;36.31
14966;BME280;7577;45.226;5.798;2023-08-21T00:33:52;99421.64;;;33.42;36.35
14966;BME280;7577;45.226;5.798;2023-08-21T00:36:22;99425.88;;;33.42;36.36
14966;BME280;7577;45.226;5.798;2023-08-21T00:38:52;99422.04;;;33.40;36.37
14966;BME280;7577;45.226;5.798;2023-08-21T00:41:22;99422.66;;;33.40;36.37
14966;BME280;7577;45.226;5.798;2023-08-21T00:43:52;99422.44;;;33.39;36.39
14966;BME280;7577;45.226;5.798;2023-08-21T00:46:23;99416.59;;;33.38;36.38
14966;BME280;7577;45.226;5.798;2023-08-21T00:48:53;99423.26;;;33.39;36.37
14966;BME280;7577;45.226;5.798;2023-08-21T00:54:02;99424.08;;;33.40;36.38
14966;BME280;7577;45.226;5.798;2023-08-21T00:56:32;99422.05;;;33.37;36.36
14966;BME280;7577;45.226;5.798;2023-08-21T00:59:03;99429.93;;;33.38;36.36
14966;BME280;7577;45.226;5.798;2023-08-21T01:01:34;99431.12;;;33.36;36.35
14966;BME280;7577;45.226;5.798;2023-08-21T01:04:05;99426.69;;;33.35;36.35
14966;BME280;7577;45.226;5.798;2023-08-21T01:06:37;99430.92;;;33.35;36.34
14966;BME280;7577;45.226;5.798;2023-08-21T01:09:12;99431.55;;;33.35;36.33
14966;BME280;7577;45.226;5.798;2023-08-21T01:11:48;99430.14;;;33.35;36.33
14966;BME280;7577;45.226;5.798;2023-08-21T01:14:22;99437.79;;;33.34;36.35
14966;BME280;7577;45.226;5.798;2023-08-21T01:17:00;99430.73;;;33.34;36.37
14966;BME280;7577;45.226;5.798;2023-08-21T01:19:31;99433.55;;;33.34;36.39
14966;BME280;7577;45.226;5.798;2023-08-21T01:22:02;99437.79;;;33.34;36.40
14966;BME280;7577;45.226;5.798;2023-08-21T01:24:32;99441.83;;;33.33;36.42
14966;BME280;7577;45.226;5.798;2023-08-21T01:27:03;99439.80;;;33.34;36.43
14966;BME280;7577;45.226;5.798;2023-08-21T01:29:35;99443.02;;;33.32;36.42
14966;BME280;7577;45.226;5.798;2023-08-21T01:32:09;99444.44;;;33.32;36.42
14966;BME280;7577;45.226;5.798;2023-08-21T01:34:40;99450.08;;;33.32;36.40
14966;BME280;7577;45.226;5.798;2023-08-21T01:37:12;99450.52;;;33.31;36.40
14966;BME280;7577;45.226;5.798;2023-08-21T01:39:43;99454.13;;;33.31;36.42
14966;BME280;7577;45.226;5.798;2023-08-21T01:42:13;99456.16;;;33.31;36.44
14966;BME280;7577;45.226;5.798;2023-08-21T01:44:43;99453.08;;;33.30;36.47
14966;BME280;7577;45.226;5.798;2023-08-21T01:47:15;99456.53;;;33.29;36.47
14966;BME280;7577;45.226;5.798;2023-08-21T01:49:45;99457.94;;;33.29;36.47
14966;BME280;7577;45.226;5.798;2023-08-21T01:52:15;99459.16;;;33.28;36.48
14966;BME280;7577;45.226;5.798;2023-08-21T01:54:45;99468.22;;;33.28;36.49
14966;BME280;7577;45.226;5.798;2023-08-21T01:57:16;99470.23;;;33.27;36.48
14966;BME280;7577;45.226;5.798;2023-08-21T01:59:47;99468.03;;;33.27;36.46
14966;BME280;7577;45.226;5.798;2023-08-21T02:02:17;99470.86;;;33.27;36.45
14966;BME280;7577;45.226;5.798;2023-08-21T02:04:48;99466.20;;;33.25;36.46
14966;BME280;7577;45.226;5.798;2023-08-21T02:07:19;99468.43;;;33.25;36.44
14966;BME280;7577;45.226;5.798;2023-08-21T02:09:49;99473.06;;;33.24;36.47
14966;BME280;7577;45.226;5.798;2023-08-21T02:12:19;99473.06;;;33.24;36.46
14966;BME280;7577;45.226;5.798;2023-08-21T02:14:49;99474.48;;;33.24;36.46
14966;BME280;7577;45.226;5.798;2023-08-21T02:17:20;99470.23;;;33.24;36.44
14966;BME280;7577;45.226;5.798;2023-08-21T02:19:50;99472.24;;;33.23;36.44
14966;BME280;7577;45.226;5.798;2023-08-21T02:24:58;99471.45;;;33.23;36.45
14966;BME280;7577;45.226;5.798;2023-08-21T02:27:28;99474.09;;;33.22;36.43
14966;BME280;7577;45.226;5.798;2023-08-21T02:29:58;99482.95;;;33.20;36.43
14966;BME280;7577;45.226;5.798;2023-08-21T02:32:29;99474.67;;;33.21;36.41
14966;BME280;7577;45.226;5.798;2023-08-21T02:34:59;99476.09;;;33.21;36.42
14966;BME280;7577;45.226;5.798;2023-08-21T02:37:29;99472.25;;;33.20;36.41
14966;BME280;7577;45.226;5.798;2023-08-21T02:39:59;99477.51;;;33.18;36.43
14966;BME280;7577;45.226;5.798;2023-08-21T02:42:30;99477.51;;;33.18;36.41
14966;BME280;7577;45.226;5.798;2023-08-21T02:45:00;99477.51;;;33.18;36.42
14966;BME280;7577;45.226;5.798;2023-08-21T02:47:33;99473.67;;;33.16;36.42
14966;BME280;7577;45.226;5.798;2023-08-21T02:50:03;99477.71;;;33.15;36.45
14966;BME280;7577;45.226;5.798;2023-08-21T02:52:34;99477.71;;;33.15;36.45
14966;BME280;7577;45.226;5.798;2023-08-21T02:57:44;99473.47;;;33.15;36.47
14966;BME280;7577;45.226;5.798;2023-08-21T03:00:15;99478.50;;;33.12;36.47
14966;BME280;7577;45.226;5.798;2023-08-21T03:02:45;99477.09;;;33.12;36.49
14966;BME280;7577;45.226;5.798;2023-08-21T03:05:16;99480.51;;;33.12;36.50
14966;BME280;7577;45.226;5.798;2023-08-21T03:07:47;99478.30;;;33.11;36.50
14966;BME280;7577;45.226;5.798;2023-08-21T03:10:17;99481.33;;;33.09;36.50
14966;BME280;7577;45.226;5.798;2023-08-21T03:12:47;99478.70;;;33.10;36.49
14966;BME280;7577;45.226;5.798;2023-08-21T03:15:17;99482.94;;;33.10;36.46
14966;BME280;7577;45.226;5.798;2023-08-21T03:20:25;99487.17;;;33.10;36.49
14966;BME280;7577;45.226;5.798;2023-08-21T03:22:55;99482.94;;;33.06;36.47
14966;BME280;7577;45.226;5.798;2023-08-21T03:25:26;99488.16;;;33.08;36.48
14966;BME280;7577;45.226;5.798;2023-08-21T03:27:57;99486.36;;;33.06;36.48
14966;BME280;7577;45.226;5.798;2023-08-21T03:30:27;99489.38;;;33.07;36.48
14966;BME280;7577;45.226;5.798;2023-08-21T03:32:57;99484.95;;;33.06;36.46
14966;BME280;7577;45.226;5.798;2023-08-21T03:35:27;99488.36;;;33.05;36.48
14966;BME280;7577;45.226;5.798;2023-08-21T03:37:57;99490.98;;;33.04;36.49
14966;BME280;7577;45.226;5.798;2023-08-21T03:40:27;99487.97;;;33.03;36.49
14966;BME280;7577;45.226;5.798;2023-08-21T03:42:57;99485.73;;;33.03;36.47
14966;BME280;7577;45.226;5.798;2023-08-21T03:45:27;99492.80;;;33.03;36.49
14966;BME280;7577;45.226;5.798;2023-08-21T03:47:57;99491.78;;;33.01;36.48
14966;BME280;7577;45.226;5.798;2023-08-21T03:50:27;99490.37;;;33.01;36.50
14966;BME280;7577;45.226;5.798;2023-08-21T03:52:58;99490.99;;;33.01;36.51
14966;BME280;7577;45.226;5.798;2023-08-21T03:55:28;99495.63;;;32.99;36.50
14966;BME280;7577;45.226;5.798;2023-08-21T03:57:58;99494.21;;;32.99;36.51
14966;BME280;7577;45.226;5.798;2023-08-21T04:00:28;99493.39;;;32.99;36.53
14966;BME280;7577;45.226;5.798;2023-08-21T04:02:59;99500.45;;;32.99;36.52
14966;BME280;7577;45.226;5.798;2023-08-21T04:05:30;99503.08;;;32.98;36.53
14966;BME280;7577;45.226;5.798;2023-08-21T04:08:00;99498.02;;;32.97;36.52
14966;BME280;7577;45.226;5.798;2023-08-21T04:10:30;99505.51;;;32.96;36.52
14966;BME280;7577;45.226;5.798;2023-08-21T04:13:01;99505.51;;;32.96;36.51
14966;BME280;7577;45.226;5.798;2023-08-21T04:15:33;99513.98;;;32.96;36.53
14966;BME280;7577;45.226;5.798;2023-08-21T04:20:43;99511.16;;;32.96;36.56
14966;BME280;7577;45.226;5.798;2023-08-21T04:23:13;99513.95;;;32.92;36.54
14966;BME280;7577;45.226;5.798;2023-08-21T04:25:43;99520.41;;;32.93;36.55
14966;BME280;7577;45.226;5.798;2023-08-21T04:28:14;99517.59;;;32.93;36.53
14966;BME280;7577;45.226;5.798;2023-08-21T04:30:44;99519.59;;;32.92;36.52
14966;BME280;7577;45.226;5.798;2023-08-21T04:33:14;99517.78;;;32.90;36.55
14966;BME280;7577;45.226;5.798;2023-08-21T04:35:44;99526.84;;;32.90;36.57
14966;BME280;7577;45.226;5.798;2023-08-21T04:38:15;99516.77;;;32.89;36.58
14966;BME280;7577;45.226;5.798;2023-08-21T04:40:44;99529.67;;;32.90;36.57
14966;BME280;7577;45.226;5.798;2023-08-21T04:43:15;99524.42;;;32.88;36.57
14966;BME280;7577;45.226;5.798;2023-08-21T04:45:49;99527.23;;;32.88;36.57
14966;BME280;7577;45.226;5.798;2023-08-21T04:48:21;99537.55;;;32.87;36.58
14966;BME280;7577;45.226;5.798;2023-08-21T04:50:51;99529.08;;;32.87;36.58
14966;BME280;7577;45.226;5.798;2023-08-21T04:53:21;99536.52;;;32.85;36.60
14966;BME280;7577;45.226;5.798;2023-08-21T04:55:51;99544.37;;;32.86;36.63
14966;BME280;7577;45.226;5.798;2023-08-21T04:58:21;99545.59;;;32.85;36.61
14966;BME280;7577;45.226;5.798;2023-08-21T05:03:29;99548.84;;;32.87;36.62
14966;BME280;7577;45.226;5.798;2023-08-21T05:05:59;99553.86;;;32.84;36.62
14966;BME280;7577;45.226;5.798;2023-08-21T05:08:29;99555.86;;;32.83;36.61
14966;BME280;7577;45.226;5.798;2023-08-21T05:11:00;99561.50;;;32.83;36.61
14966;BME280;7577;45.226;5.798;2023-08-21T05:13:30;99567.15;;;32.83;36.59
14966;BME280;7577;45.226;5.798;2023-08-21T05:18:41;99567.34;;;32.84;36.63
14966;BME280;7577;45.226;5.798;2023-08-21T05:21:12;99570.16;;;32.81;36.63
14966;BME280;7577;45.226;5.798;2023-08-21T05:23:42;99572.20;;;32.80;36.65
14966;BME280;7577;45.226;5.798;2023-08-21T05:26:12;99577.22;;;32.81;36.64
14966;BME280;7577;45.226;5.798;2023-08-21T05:28:42;99572.79;;;32.80;36.69
14966;BME280;7577;45.226;5.798;2023-08-21T05:31:12;99581.03;;;32.79;36.71
14966;BME280;7577;45.226;5.798;2023-08-21T05:33:42;99585.69;;;32.81;36.72
14966;BME280;7577;45.226;5.798;2023-08-21T05:36:12;99582.67;;;32.80;36.72
14966;BME280;7577;45.226;5.798;2023-08-21T05:38:42;99585.69;;;32.81;36.74
14966;BME280;7577;45.226;5.798;2023-08-21T05:41:13;99581.26;;;32.80;36.75
14966;BME280;7577;45.226;5.798;2023-08-21T05:43:42;99583.26;;;32.79;36.75
14966;BME280;7577;45.226;5.798;2023-08-21T05:46:14;99588.08;;;32.79;36.79
14966;BME280;7577;45.226;5.798;2023-08-21T05:48:44;99589.72;;;32.80;36.79
14966;BME280;7577;45.226;5.798;2023-08-21T05:51:14;99593.14;;;32.79;36.78
14966;BME280;7577;45.226;5.798;2023-08-21T05:53:45;99598.19;;;32.80;36.81
14966;BME280;7577;45.226;5.798;2023-08-21T05:56:15;99596.13;;;32.77;36.70
14966;BME280;7577;45.226;5.798;2023-08-21T05:58:45;99599.90;;;32.64;36.38
14966;BME280;7577;45.226;5.798;2023-08-21T06:01:15;99600.36;;;32.39;36.73
14966;BME280;7577;45.226;5.798;2023-08-21T06:03:45;99601.06;;;32.26;36.82
14966;BME280;7577;45.226;5.798;2023-08-21T06:06:16;99594.70;;;32.09;36.88
14966;BME280;7577;45.226;5.798;2023-08-21T06:08:45;99596.50;;;31.84;37.09
14966;BME280;7577;45.226;5.798;2023-08-21T06:11:17;99603.48;;;31.57;37.44
14966;BME280;7577;45.226;5.798;2023-08-21T06:13:47;99604.81;;;31.30;37.86
14966;BME280;7577;45.226;5.798;2023-08-21T06:16:17;99604.55;;;31.09;38.33
14966;BME280;7577;45.226;5.798;2023-08-21T06:18:47;99611.19;;;30.94;38.51
14966;BME280;7577;45.226;5.798;2023-08-21T06:21:17;99607.27;;;30.85;38.71
14966;BME280;7577;45.226;5.798;2023-08-21T06:23:47;99608.16;;;30.76;38.89
14966;BME280;7577;45.226;5.798;2023-08-21T06:26:18;99605.86;;;30.69;39.04
14966;BME280;7577;45.226;5.798;2023-08-21T06:28:48;99605.52;;;30.61;39.38
14966;BME280;7577;45.226;5.798;2023-08-21T06:31:18;99607.64;;;30.54;39.97
14966;BME280;7577;45.226;5.798;2023-08-21T06:33:49;99605.20;;;30.53;41.00
14966;BME280;7577;45.226;5.798;2023-08-21T06:36:19;99608.50;;;30.71;40.81
14966;BME280;7577;45.226;5.798;2023-08-21T06:38:49;99613.72;;;30.86;40.44
14966;BME280;7577;45.226;5.798;2023-08-21T06:41:19;99613.27;;;31.00;40.04
14966;BME280;7577;45.226;5.798;2023-08-21T06:46:27;99611.63;;;31.29;39.89
14966;BME280;7577;45.226;5.798;2023-08-21T06:48:58;99614.32;;;31.35;39.85
14966;BME280;7577;45.226;5.798;2023-08-21T06:51:28;99613.81;;;31.46;39.68
14966;BME280;7577;45.226;5.798;2023-08-21T06:53:58;99613.90;;;31.53;39.49
14966;BME280;7577;45.226;5.798;2023-08-21T06:59:06;99608.42;;;31.70;39.12
14966;BME280;7577;45.226;5.798;2023-08-21T07:01:36;99609.06;;;31.73;39.03
14966;BME280;7577;45.226;5.798;2023-08-21T07:04:07;99614.98;;;31.78;38.89
14966;BME280;7577;45.226;5.798;2023-08-21T07:06:38;99610.59;;;31.84;38.80
14966;BME280;7577;45.226;5.798;2023-08-21T07:09:08;99610.41;;;31.86;38.72
14966;BME280;7577;45.226;5.798;2023-08-21T07:11:39;99610.87;;;31.92;38.63
14966;BME280;7577;45.226;5.798;2023-08-21T07:14:09;99608.69;;;31.95;38.58
14966;BME280;7577;45.226;5.798;2023-08-21T07:16:40;99608.91;;;31.99;38.51
14966;BME280;7577;45.226;5.798;2023-08-21T07:19:11;99606.11;;;32.03;38.48
14966;BME280;7577;45.226;5.798;2023-08-21T07:21:41;99611.17;;;32.07;38.44
14966;BME280;7577;45.226;5.798;2023-08-21T07:24:11;99609.38;;;32.08;38.42
14966;BME280;7577;45.226;5.798;2023-08-21T07:26:41;99604.77;;;32.10;38.39
14966;BME280;7577;45.226;5.798;2023-08-21T07:29:12;99609.83;;;32.14;38.38
14966;BME280;7577;45.226;5.798;2023-08-21T07:34:20;99607.05;;;32.21;38.32
14966;BME280;7577;45.226;5.798;2023-08-21T07:36:49;99606.25;;;32.20;38.32
14966;BME280;7577;45.226;5.798;2023-08-21T07:39:20;99604.45;;;32.22;38.32
14966;BME280;7577;45.226;5.798;2023-08-21T07:41:50;99606.27;;;32.24;38.32
14966;BME280;7577;45.226;5.798;2023-08-21T07:44:22;99608.11;;;32.26;38.30
14966;BME280;7577;45.226;5.798;2023-08-21T07:46:52;99599.66;;;32.26;38.32
14966;BME280;7577;45.226;5.798;2023-08-21T07:49:23;99600.28;;;32.29;38.31
14966;BME280;7577;45.226;5.798;2023-08-21T07:51:53;99594.88;;;32.30;38.31
14966;BME280;7577;45.226;5.798;2023-08-21T07:54:23;99597.71;;;32.33;38.30
14966;BME280;7577;45.226;5.798;2023-08-21T07:56:53;99601.94;;;32.33;38.28
14966;BME280;7577;45.226;5.798;2023-08-21T08:02:02;99590.88;;;32.38;38.25
14966;BME280;7577;45.226;5.798;2023-08-21T08:04:33;99598.34;;;32.36;38.27
14966;BME280;7577;45.226;5.798;2023-08-21T08:07:03;99592.28;;;32.38;38.22
14966;BME280;7577;45.226;5.798;2023-08-21T08:09:33;99596.95;;;32.40;38.23
14966;BME280;7577;45.226;5.798;2023-08-21T08:12:05;99592.09;;;32.40;38.25
14966;BME280;7577;45.226;5.798;2023-08-21T08:14:36;99589.27;;;32.40;38.22
14966;BME280;7577;45.226;5.798;2023-08-21T08:17:07;99588.30;;;32.42;38.22
14966;BME280;7577;45.226;5.798;2023-08-21T08:22:14;99580.05;;;32.47;38.17
14966;BME280;7577;45.226;5.798;2023-08-21T08:24:45;99579.64;;;32.45;38.15
14966;BME280;7577;45.226;5.798;2023-08-21T08:27:15;99577.22;;;32.47;38.16
14966;BME280;7577;45.226;5.798;2023-08-21T08:29:45;99574.40;;;32.47;38.15
14966;BME280;7577;45.226;5.798;2023-08-21T08:32:15;99571.58;;;32.47;38.12
14966;BME280;7577;45.226;5.798;2023-08-21T08:34:45;99571.19;;;32.48;38.09
14966;BME280;7577;45.226;5.798;2023-08-21T08:37:15;99565.34;;;32.47;38.07
14966;BME280;7577;45.226;5.798;2023-08-21T08:39:47;99568.56;;;32.49;38.07
14966;BME280;7577;45.226;5.798;2023-08-21T08:42:17;99559.72;;;32.51;38.04
14966;BME280;7577;45.226;5.798;2023-08-21T08:44:48;99561.13;;;32.51;38.02
14966;BME280;7577;45.226;5.798;2023-08-21T08:47:20;99562.34;;;32.53;38.00
14966;BME280;7577;45.226;5.798;2023-08-21T08:49:51;99556.11;;;32.54;37.99
14966;BME280;7577;45.226;5.798;2023-08-21T08:52:23;99556.31;;;32.55;37.99
14966;BME280;7577;45.226;5.798;2023-08-21T08:54:56;99554.31;;;32.55;37.99
14966;BME280;7577;45.226;5.798;2023-08-21T08:57:27;99543.02;;;32.55;37.96
14966;BME280;7577;45.226;5.798;2023-08-21T08:59:58;99544.64;;;32.56;37.95
14966;BME280;7577;45.226;5.798;2023-08-21T09:05:08;99533.98;;;32.59;37.96
14966;BME280;7577;45.226;5.798;2023-08-21T09:07:40;99536.37;;;32.57;37.96
14966;BME280;7577;45.226;5.798;2023-08-21T09:10:15;99535.19;;;32.58;37.91
14966;BME280;7577;45.226;5.798;2023-08-21T09:12:47;99529.55;;;32.58;37.90
14966;BME280;7577;45.226;5.798;2023-08-21T09:15:17;99531.16;;;32.59;37.90
14966;BME280;7577;45.226;5.798;2023-08-21T09:20:37;99520.89;;;32.64;37.88
14966;BME280;7577;45.226;5.798;2023-08-21T09:23:08;99516.03;;;32.61;37.83
14966;BME280;7577;45.226;5.798;2023-08-21T09:25:39;99517.64;;;32.62;37.82
14966;BME280;7577;45.226;5.798;2023-08-21T09:28:10;99507.77;;;32.62;37.81
14966;BME280;7577;45.226;5.798;2023-08-21T09:30:48;99505.17;;;32.63;37.79
14966;BME280;7577;45.226;5.798;2023-08-21T09:33:20;99501.73;;;32.64;37.78
14966;BME280;7577;45.226;5.798;2023-08-21T09:35:52;99505.57;;;32.65;37.76
14966;BME280;7577;45.226;5.798;2023-08-21T09:38:25;99501.95;;;32.65;37.71
14966;BME280;7577;45.226;5.798;2023-08-21T09:40:56;99502.95;;;32.66;37.69
14966;BME280;7577;45.226;5.798;2023-08-21T09:43:26;99494.48;;;32.66;37.68
14966;BME280;7577;45.226;5.798;2023-08-21T09:45:57;99492.48;;;32.67;37.68
14966;BME280;7577;45.226;5.798;2023-08-21T09:48:27;99485.63;;;32.68;37.64
14966;BME280;7577;45.226;5.798;2023-08-21T09:53:56;99476.77;;;32.69;37.65
14966;BME280;7577;45.226;5.798;2023-08-21T09:56:27;99482.20;;;32.68;37.58
14966;BME280;7577;45.226;5.798;2023-08-21T09:58:58;99474.77;;;32.70;37.57
14966;BME280;7577;45.226;5.798;2023-08-21T10:01:28;99472.14;;;32.71;37.54
14966;BME280;7577;45.226;5.798;2023-08-21T10:04:02;99474.14;;;32.70;37.52
14966;BME280;7577;45.226;5.798;2023-08-21T10:06:33;99466.69;;;32.72;37.49
14966;BME280;7577;45.226;5.798;2023-08-21T10:09:05;99468.92;;;32.72;37.48
14966;BME280;7577;45.226;5.798;2023-08-21T10:11:37;99471.74;;;32.72;37.46
14966;BME280;7577;45.226;5.798;2023-08-21T10:14:09;99466.09;;;32.72;37.45
14966;BME280;7577;45.226;5.798;2023-08-21T10:19:19;99451.39;;;32.76;37.42
14966;BME280;7577;45.226;5.798;2023-08-21T10:21:49;99448.34;;;32.75;37.37
14966;BME280;7577;45.226;5.798;2023-08-21T10:24:34;99444.94;;;32.76;37.37
14966;BME280;7577;45.226;5.798;2023-08-21T10:27:01;99444.94;;;32.76;37.38
14966;BME280;7577;45.226;5.798;2023-08-21T10:29:32;99445.75;;;32.76;37.37
14966;BME280;7577;45.226;5.798;2023-08-21T10:32:03;99444.73;;;32.78;37.36
14966;BME280;7577;45.226;5.798;2023-08-21T10:34:36;99441.72;;;32.77;37.34
14966;BME280;7577;45.226;5.798;2023-08-21T10:37:08;99432.85;;;32.79;37.32
14966;BME280;7577;45.226;5.798;2023-08-21T10:39:53;99439.09;;;32.78;37.31
14966;BME280;7577;45.226;5.798;2023-08-21T10:42:38;99437.09;;;32.79;37.29
14966;BME280;7577;45.226;5.798;2023-08-21T10:45:14;99428.25;;;32.80;37.27
14966;BME280;7577;45.226;5.798;2023-08-21T10:47:44;99423.40;;;32.81;37.27
14966;BME280;7577;45.226;5.798;2023-08-21T10:50:16;99423.40;;;32.81;37.26
14966;BME280;7577;45.226;5.798;2023-08-21T10:55:27;99415.16;;;32.85;37.23
14966;BME280;7577;45.226;5.798;2023-08-21T10:57:58;99420.80;;;32.85;37.20
14966;BME280;7577;45.226;5.798;2023-08-21T11:00:28;99416.56;;;32.85;37.19
14966;BME280;7577;45.226;5.798;2023-08-21T11:02:59;99411.94;;;32.87;37.17
14966;BME280;7577;45.226;5.798;2023-08-21T11:05:29;99406.87;;;32.86;37.15
14966;BME280;7577;45.226;5.798;2023-08-21T11:07:59;99405.67;;;32.87;37.14
14966;BME280;7577;45.226;5.798;2023-08-21T11:10:31;99403.86;;;32.89;37.11
14966;BME280;7577;45.226;5.798;2023-08-21T11:13:05;99397.39;;;32.88;37.09
14966;BME280;7577;45.226;5.798;2023-08-21T11:15:33;99399.63;;;32.89;37.08
14966;BME280;7577;45.226;5.798;2023-08-21T11:20:43;99395.61;;;32.93;37.05
14966;BME280;7577;45.226;5.798;2023-08-21T11:23:14;99396.60;;;32.91;37.04
14966;BME280;7577;45.226;5.798;2023-08-21T11:25:45;99392.56;;;32.92;37.00
14966;BME280;7577;45.226;5.798;2023-08-21T11:28:18;99387.73;;;32.93;36.98
14966;BME280;7577;45.226;5.798;2023-08-21T11:30:49;99389.34;;;32.94;36.97
14966;BME280;7577;45.226;5.798;2023-08-21T11:33:19;99386.71;;;32.95;36.95
14966;BME280;7577;45.226;5.798;2023-08-21T11:35:50;99379.88;;;32.96;36.94
14966;BME280;7577;45.226;5.798;2023-08-21T11:38:23;99384.11;;;32.96;36.92
14966;BME280;7577;45.226;5.798;2023-08-21T11:40:56;99379.26;;;32.96;36.90
14966;BME280;7577;45.226;5.798;2023-08-21T11:43:36;99372.83;;;32.96;36.93
14966;BME280;7577;45.226;5.798;2023-08-21T11:46:08;99373.22;;;32.98;36.87
14966;BME280;7577;45.226;5.798;2023-08-21T11:48:40;99372.81;;;32.99;36.86
14966;BME280;7577;45.226;5.798;2023-08-21T11:51:10;99365.36;;;33.01;36.84
14966;BME280;7577;45.226;5.798;2023-08-21T11:53:41;99361.31;;;33.02;36.82
14966;BME280;7577;45.226;5.798;2023-08-21T11:56:13;99363.12;;;33.04;36.80
14966;BME280;7577;45.226;5.798;2023-08-21T11:58:45;99356.28;;;33.05;36.80
14966;BME280;7577;45.226;5.798;2023-08-21T12:03:59;99347.61;;;33.07;36.80
14966;BME280;7577;45.226;5.798;2023-08-21T12:06:29;99343.77;;;33.06;36.78
14966;BME280;7577;45.226;5.798;2023-08-21T12:09:01;99335.90;;;33.05;36.79
14966;BME280;7577;45.226;5.798;2023-08-21T12:11:33;99336.31;;;33.07;36.77
14966;BME280;7577;45.226;5.798;2023-08-21T12:14:04;99332.87;;;33.08;36.76
14966;BME280;7577;45.226;5.798;2023-08-21T12:16:34;99337.33;;;33.09;36.76
14966;BME280;7577;45.226;5.798;2023-08-21T12:19:05;99329.24;;;33.11;36.73
14966;BME280;7577;45.226;5.798;2023-08-21T12:24:15;99314.52;;;33.15;36.72
14966;BME280;7577;45.226;5.798;2023-08-21T12:26:45;99313.31;;;33.12;36.71
14966;BME280;7577;45.226;5.798;2023-08-21T12:29:15;99310.09;;;33.14;36.71
14966;BME280;7577;45.226;5.798;2023-08-21T12:31:46;99313.49;;;33.17;36.71
14966;BME280;7577;45.226;5.798;2023-08-21T12:34:16;99308.66;;;33.17;36.71
14966;BME280;7577;45.226;5.798;2023-08-21T12:36:46;99303.02;;;33.17;36.69
14966;BME280;7577;45.226;5.798;2023-08-21T12:39:16;99304.02;;;33.19;36.68
14966;BME280;7577;45.226;5.798;2023-08-21T12:41:47;99304.81;;;33.19;36.68
14966;BME280;7577;45.226;5.798;2023-08-21T12:44:17;99303.00;;;33.21;36.68
14966;BME280;7577;45.226;5.798;2023-08-21T12:46:47;99304.83;;;33.23;36.67
14966;BME280;7577;45.226;5.798;2023-08-21T12:49:17;99299.56;;;33.25;36.67
14966;BME280;7577;45.226;5.798;2023-08-21T12:51:47;99298.97;;;33.25;36.64
14966;BME280;7577;45.226;5.798;2023-08-21T12:57:01;99288.47;;;33.29;36.64
14966;BME280;7577;45.226;5.798;2023-08-21T12:59:31;99288.28;;;33.28;36.61
14966;BME280;7577;45.226;5.798;2023-08-21T13:02:01;99288.70;;;33.30;36.60
14966;BME280;7577;45.226;5.798;2023-08-21T13:04:33;99272.95;;;33.33;36.61
14966;BME280;7577;45.226;5.798;2023-08-21T13:07:03;99281.02;;;33.34;36.59
14966;BME280;7577;45.226;5.798;2023-08-21T13:09:33;99266.49;;;33.36;36.57
14966;BME280;7577;45.226;5.798;2023-08-21T13:12:05;99271.30;;;33.39;36.58
14966;BME280;7577;45.226;5.798;2023-08-21T13:14:37;99264.24;;;33.39;36.56
14966;BME280;7577;45.226;5.798;2023-08-21T13:19:44;99255.76;;;33.46;36.57
14966;BME280;7577;45.226;5.798;2023-08-21T13:22:17;99261.22;;;33.45;36.54
14966;BME280;7577;45.226;5.798;2023-08-21T13:24:47;99249.70;;;33.48;36.52
14966;BME280;7577;45.226;5.798;2023-08-21T13:27:17;99258.16;;;33.51;36.52
14966;BME280;7577;45.226;5.798;2023-08-21T13:29:47;99251.28;;;33.52;36.51
14966;BME280;7577;45.226;5.798;2023-08-21T13:32:17;99249.66;;;33.54;36.51
14966;BME280;7577;45.226;5.798;2023-08-21T13:34:47;99245.64;;;33.56;36.49
14966;BME280;7577;45.226;5.798;2023-08-21T13:37:18;99245.42;;;33.58;36.45
14966;BME280;7577;45.226;5.798;2023-08-21T13:39:50;99234.50;;;33.60;36.44
14966;BME280;7577;45.226;5.798;2023-08-21T13:42:20;99234.09;;;33.62;36.41
14966;BME280;7577;45.226;5.798;2023-08-21T13:44:51;99232.66;;;33.65;36.38
14966;BME280;7577;45.226;5.798;2023-08-21T13:47:21;99224.59;;;33.67;36.36
14966;BME280;7577;45.226;5.798;2023-08-21T13:49:51;99222.77;;;33.69;36.35
14966;BME280;7577;45.226;5.798;2023-08-21T13:52:22;99228.39;;;33.72;36.33
14966;BME280;7577;45.226;5.798;2023-08-21T13:54:52;99218.09;;;33.74;36.29
14966;BME280;7577;45.226;5.798;2023-08-21T13:57:22;99224.95;;;33.76;36.28
14966;BME280;7577;45.226;5.798;2023-08-21T14:02:31;99216.44;;;33.83;36.21
14966;BME280;7577;45.226;5.798;2023-08-21T14:05:01;99215.66;;;33.83;36.19
14966;BME280;7577;45.226;5.798;2023-08-21T14:07:34;99214.02;;;33.85;36.17
14966;BME280;7577;45.226;5.798;2023-08-21T14:10:06;99209.55;;;33.88;36.12
14966;BME280;7577;45.226;5.798;2023-08-21T14:12:37;99212.16;;;33.90;36.10
14966;BME280;7577;45.226;5.798;2023-08-21T14:15:09;99204.88;;;33.93;36.10
14966;BME280;7577;45.226;5.798;2023-08-21T14:20:17;99203.43;;;34.00;36.04
14966;BME280;7577;45.226;5.798;2023-08-21T14:22:47;99200.41;;;33.99;36.04
14966;BME280;7577;45.226;5.798;2023-08-21T14:25:18;99195.14;;;34.01;36.00
14966;BME280;7577;45.226;5.798;2023-08-21T14:27:49;99199.16;;;34.03;36.00
14966;BME280;7577;45.226;5.798;2023-08-21T14:30:20;99190.45;;;34.06;35.97
14966;BME280;7577;45.226;5.798;2023-08-21T14:32:50;99187.22;;;34.07;35.95
14966;BME280;7577;45.226;5.798;2023-08-21T14:35:20;99186.80;;;34.09;35.94